createdAt,value
2018-12-29T00:00:31.961Z,927.52
2018-12-29T00:01:31.926Z,927.52
2018-12-29T00:02:31.878Z,927.46
2018-12-29T00:03:31.839Z,927.42
2018-12-29T00:04:31.781Z,927.43
2018-12-29T00:05:31.749Z,927.44
2018-12-29T00:06:31.698Z,927.36
2018-12-29T00:07:31.667Z,927.31
2018-12-29T00:08:31.601Z,927.30
2018-12-29T00:09:31.577Z,927.31
2018-12-29T00:10:31.519Z,927.33
2018-12-29T00:11:31.465Z,927.31
2018-12-29T00:12:31.442Z,927.37
2018-12-29T00:13:31.375Z,927.38
2018-12-29T00:14:31.351Z,927.37
2018-12-29T00:15:31.298Z,927.37
2018-12-29T00:16:31.253Z,927.39
2018-12-29T00:17:31.226Z,927.37
2018-12-29T00:18:31.162Z,927.36
2018-12-29T00:19:31.125Z,927.38
2018-12-29T00:20:31.072Z,927.41
2018-12-29T00:21:31.027Z,927.44
2018-12-29T00:22:30.980Z,927.43
2018-12-29T00:23:30.932Z,927.45
2018-12-29T00:24:30.892Z,927.47
2018-12-29T00:25:30.842Z,927.44
2018-12-29T00:26:30.788Z,927.45
2018-12-29T00:27:30.765Z,927.49
2018-12-29T00:28:30.706Z,927.44
2018-12-29T00:29:30.674Z,927.50
2018-12-29T00:30:30.607Z,927.49
2018-12-29T00:31:30.570Z,927.48
2018-12-29T00:32:30.538Z,927.47
2018-12-29T00:33:30.480Z,927.43
2018-12-29T00:34:30.451Z,927.52
2018-12-29T00:35:30.390Z,927.45
2018-12-29T00:36:30.358Z,927.50
2018-12-29T00:37:30.299Z,927.51
2018-12-29T00:38:30.259Z,927.53
2018-12-29T00:39:30.213Z,927.58
2018-12-29T00:40:30.168Z,927.58
2018-12-29T00:41:30.132Z,927.64
2018-12-29T00:42:30.078Z,927.66
2018-12-29T00:43:30.020Z,927.69
2018-12-29T00:44:29.987Z,927.71
2018-12-29T00:45:29.938Z,927.68
2018-12-29T00:46:29.884Z,927.63
2018-12-29T00:47:29.932Z,927.65
2018-12-29T00:48:29.802Z,927.65
2018-12-29T00:49:29.758Z,927.70
2018-12-29T00:50:29.717Z,927.65
2018-12-29T00:51:29.658Z,927.66
2018-12-29T00:52:29.634Z,927.64
2018-12-29T00:53:29.576Z,927.63
2018-12-29T00:54:29.523Z,927.64
2018-12-29T00:55:29.498Z,927.61
2018-12-29T00:56:29.432Z,927.60
2018-12-29T00:57:29.395Z,927.57
2018-12-29T00:58:29.342Z,927.59
2018-12-29T00:59:29.305Z,927.55
2018-12-29T01:00:29.273Z,927.57
2018-12-29T01:01:29.215Z,927.63
2018-12-29T01:02:29.161Z,927.62
2018-12-29T01:03:29.116Z,927.65
2018-12-29T01:04:29.078Z,927.65
2018-12-29T01:05:29.047Z,927.67
2018-12-29T01:06:28.993Z,927.64
2018-12-29T01:07:28.957Z,927.66
2018-12-29T01:08:28.891Z,927.64
2018-12-29T01:09:28.858Z,927.63
2018-12-29T01:10:28.800Z,927.58
2018-12-29T01:11:28.762Z,927.57
2018-12-29T01:12:28.710Z,927.60
2018-12-29T01:13:28.664Z,927.54
2018-12-29T01:14:28.635Z,927.65
2018-12-29T01:15:28.582Z,927.60
2018-12-29T01:16:28.542Z,927.61
2018-12-29T01:17:28.507Z,927.60
2018-12-29T01:18:28.446Z,927.59
2018-12-29T01:19:28.402Z,927.57
2018-12-29T01:20:28.361Z,927.53
2018-12-29T01:21:28.324Z,927.63
2018-12-29T01:22:28.260Z,927.64
2018-12-29T01:23:28.224Z,927.65
2018-12-29T01:24:28.180Z,927.64
2018-12-29T01:25:28.209Z,927.65
2018-12-29T01:26:28.084Z,927.64
2018-12-29T01:27:28.032Z,927.65
2018-12-29T01:28:27.994Z,927.64
2018-12-29T01:29:27.941Z,927.67
2018-12-29T01:30:27.905Z,927.62
2018-12-29T01:31:27.872Z,927.64
2018-12-29T01:32:27.819Z,927.57
2018-12-29T01:33:27.781Z,927.59
2018-12-29T01:34:27.723Z,927.56
2018-12-29T01:35:27.682Z,927.52
2018-12-29T01:36:27.631Z,927.47
2018-12-29T01:37:27.594Z,927.42
2018-12-29T01:38:27.555Z,927.39
2018-12-29T01:39:27.509Z,927.43
2018-12-29T01:40:27.456Z,927.41
2018-12-29T01:41:27.406Z,927.45
2018-12-29T01:42:27.373Z,927.46
2018-12-29T01:43:27.328Z,927.45
2018-12-29T01:44:27.299Z,927.46
2018-12-29T01:45:27.229Z,927.43
2018-12-29T01:46:27.172Z,927.41
2018-12-29T01:47:27.147Z,927.43
2018-12-29T01:48:27.097Z,927.38
2018-12-29T01:49:27.049Z,927.37
2018-12-29T01:50:26.989Z,927.33
2018-12-29T01:51:26.951Z,927.34
2018-12-29T01:52:26.911Z,927.37
2018-12-29T01:53:26.866Z,927.36
2018-12-29T01:54:26.816Z,927.38
2018-12-29T01:55:26.784Z,927.37
2018-12-29T01:56:26.730Z,927.37
2018-12-29T01:57:26.693Z,927.31
2018-12-29T01:58:26.639Z,927.36
2018-12-29T01:59:26.581Z,927.35
2018-12-29T02:00:26.543Z,927.34
2018-12-29T02:01:26.502Z,927.29
2018-12-29T02:02:26.466Z,927.32
2018-12-29T02:03:26.420Z,927.29
2018-12-29T02:04:26.361Z,927.31
2018-12-29T02:05:26.321Z,927.25
2018-12-29T02:06:26.284Z,927.27
2018-12-29T02:07:26.239Z,927.23
2018-12-29T02:08:26.197Z,927.20
2018-12-29T02:09:26.127Z,927.25
2018-12-29T02:10:26.095Z,927.23
2018-12-29T02:11:26.058Z,927.22
2018-12-29T02:12:25.991Z,927.19
2018-12-29T02:13:25.953Z,927.22
2018-12-29T02:14:25.903Z,927.22
2018-12-29T02:15:25.868Z,927.18
2018-12-29T02:16:25.810Z,927.15
2018-12-29T02:17:25.773Z,927.11
2018-12-29T02:18:25.732Z,927.07
2018-12-29T02:19:25.683Z,927.09
2018-12-29T02:20:25.636Z,927.07
2018-12-29T02:21:25.605Z,927.04
2018-12-29T02:22:25.538Z,927.04
2018-12-29T02:23:25.492Z,927.06
2018-12-29T02:24:25.450Z,927.06
2018-12-29T02:25:25.403Z,927.01
2018-12-29T02:26:25.357Z,927.02
2018-12-29T02:27:25.312Z,927.03
2018-12-29T02:28:25.266Z,927.00
2018-12-29T02:29:25.221Z,927.00
2018-12-29T02:30:25.176Z,926.96
2018-12-29T02:31:25.138Z,926.99
2018-12-29T02:32:25.093Z,926.97
2018-12-29T02:33:25.040Z,926.95
2018-12-29T02:34:25.018Z,927.00
2018-12-29T02:35:24.960Z,927.01
2018-12-29T02:36:24.925Z,926.98
2018-12-29T02:37:24.866Z,926.97
2018-12-29T02:38:24.815Z,926.95
2018-12-29T02:39:24.781Z,926.92
2018-12-29T02:40:24.744Z,926.87
2018-12-29T02:41:24.690Z,926.89
2018-12-29T02:42:24.640Z,926.90
2018-12-29T02:43:24.599Z,926.88
2018-12-29T02:44:24.557Z,926.91
2018-12-29T02:45:24.509Z,926.88
2018-12-29T02:46:24.458Z,926.85
2018-12-29T02:47:24.427Z,926.85
2018-12-29T02:48:24.374Z,926.81
2018-12-29T02:49:24.327Z,926.74
2018-12-29T02:50:24.290Z,926.73
2018-12-29T02:51:24.224Z,926.73
2018-12-29T02:52:24.179Z,926.73
2018-12-29T02:53:24.142Z,926.74
2018-12-29T02:54:24.101Z,926.73
2018-12-29T02:55:24.054Z,926.74
2018-12-29T02:56:24.010Z,926.75
2018-12-29T02:57:23.958Z,926.73
2018-12-29T02:58:23.928Z,926.67
2018-12-29T02:59:23.883Z,926.65
2018-12-29T03:00:23.825Z,926.63
2018-12-29T03:01:23.778Z,926.58
2018-12-29T03:02:23.740Z,926.57
2018-12-29T03:03:23.703Z,926.48
2018-12-29T03:04:23.635Z,926.54
2018-12-29T03:05:23.603Z,926.49
2018-12-29T03:06:23.552Z,926.45
2018-12-29T03:07:23.512Z,926.41
2018-12-29T03:08:23.467Z,926.39
2018-12-29T03:09:23.430Z,926.46
2018-12-29T03:10:23.376Z,926.38
2018-12-29T03:11:23.326Z,926.30
2018-12-29T03:12:23.285Z,926.33
2018-12-29T03:13:23.248Z,926.31
2018-12-29T03:14:23.183Z,926.30
2018-12-29T03:15:23.149Z,926.31
2018-12-29T03:16:23.113Z,926.29
2018-12-29T03:17:23.059Z,926.28
2018-12-29T03:18:23.007Z,926.31
2018-12-29T03:19:22.970Z,926.31
2018-12-29T03:20:22.921Z,926.32
2018-12-29T03:21:22.864Z,926.33
2018-12-29T03:22:22.819Z,926.33
2018-12-29T03:23:22.786Z,926.32
2018-12-29T03:24:22.740Z,926.30
2018-12-29T03:25:22.884Z,926.30
2018-12-29T03:26:22.651Z,926.30
2018-12-29T03:27:22.612Z,926.30
2018-12-29T03:28:22.553Z,926.32
2018-12-29T03:29:22.513Z,926.32
2018-12-29T03:30:22.480Z,926.37
2018-12-29T03:31:22.411Z,926.38
2018-12-29T03:32:22.374Z,926.34
2018-12-29T03:33:22.319Z,926.35
2018-12-29T03:34:22.295Z,926.34
2018-12-29T03:35:22.244Z,926.27
2018-12-29T03:36:22.204Z,926.30
2018-12-29T03:37:22.145Z,926.25
2018-12-29T03:38:22.092Z,926.25
2018-12-29T03:39:22.059Z,926.26
2018-12-29T03:40:22.001Z,926.26
2018-12-29T03:41:21.964Z,926.29
2018-12-29T03:42:21.933Z,926.26
2018-12-29T03:43:21.864Z,926.26
2018-12-29T03:44:21.840Z,926.27
2018-12-29T03:45:21.795Z,926.28
2018-12-29T03:46:21.749Z,926.27
2018-12-29T03:47:21.696Z,926.23
2018-12-29T03:48:21.651Z,926.26
2018-12-29T03:49:21.613Z,926.28
2018-12-29T03:50:21.554Z,926.26
2018-12-29T03:51:21.514Z,926.23
2018-12-29T03:52:21.468Z,926.27
2018-12-29T03:53:21.431Z,926.23
2018-12-29T03:54:21.379Z,926.20
2018-12-29T03:55:21.319Z,926.20
2018-12-29T03:56:21.281Z,926.13
2018-12-29T03:57:21.237Z,926.15
2018-12-29T03:58:21.207Z,926.11
2018-12-29T03:59:21.144Z,926.12
2018-12-29T04:00:21.112Z,926.19
2018-12-29T04:01:21.058Z,926.16
2018-12-29T04:02:21.009Z,926.16
2018-12-29T04:03:20.976Z,926.18
2018-12-29T04:04:20.911Z,926.13
2018-12-29T04:05:20.864Z,926.13
2018-12-29T04:06:20.831Z,926.08
2018-12-29T04:07:20.781Z,926.09
2018-12-29T04:08:20.740Z,926.06
2018-12-29T04:09:20.691Z,926.09
2018-12-29T04:10:20.658Z,926.07
2018-12-29T04:11:20.600Z,926.05
2018-12-29T04:12:20.574Z,926.03
2018-12-29T04:13:20.514Z,926.06
2018-12-29T04:14:20.470Z,926.03
2018-12-29T04:15:20.422Z,926.01
2018-12-29T04:16:20.376Z,926.01
2018-12-29T04:17:20.320Z,926.01
2018-12-29T04:18:20.286Z,925.99
2018-12-29T04:19:20.227Z,925.96
2018-12-29T04:20:20.190Z,925.99
2018-12-29T04:21:20.136Z,925.95
2018-12-29T04:22:20.104Z,925.94
2018-12-29T04:23:20.046Z,925.97
2018-12-29T04:24:20.011Z,925.99
2018-12-29T04:25:19.963Z,925.99
2018-12-29T04:26:19.916Z,926.01
2018-12-29T04:27:19.870Z,925.89
2018-12-29T04:28:19.825Z,925.89
2018-12-29T04:29:19.779Z,925.88
2018-12-29T04:30:19.739Z,925.82
2018-12-29T04:31:19.682Z,925.76
2018-12-29T04:32:19.656Z,925.78
2018-12-29T04:33:19.590Z,925.73
2018-12-29T04:34:19.557Z,925.72
2018-12-29T04:35:19.507Z,925.74
2018-12-29T04:36:19.453Z,925.78
2018-12-29T04:37:19.407Z,925.77
2018-12-29T04:38:19.369Z,925.74
2018-12-29T04:39:19.324Z,925.77
2018-12-29T04:40:19.292Z,925.73
2018-12-29T04:41:19.246Z,925.73
2018-12-29T04:42:19.188Z,925.74
2018-12-29T04:43:19.147Z,925.71
2018-12-29T04:44:19.117Z,925.67
2018-12-29T04:45:19.056Z,925.64
2018-12-29T04:46:19.010Z,925.68
2018-12-29T04:47:18.973Z,925.65
2018-12-29T04:48:18.923Z,925.63
2018-12-29T04:49:18.874Z,925.67
2018-12-29T04:50:18.839Z,925.69
2018-12-29T04:51:18.769Z,925.68
2018-12-29T04:52:18.723Z,925.66
2018-12-29T04:53:18.691Z,925.70
2018-12-29T04:54:18.641Z,925.71
2018-12-29T04:55:18.599Z,925.64
2018-12-29T04:56:18.555Z,925.65
2018-12-29T04:57:18.508Z,925.65
2018-12-29T04:58:18.462Z,925.63
2018-12-29T04:59:18.404Z,925.60
2018-12-29T05:00:18.358Z,925.64
2018-12-29T05:01:18.325Z,925.66
2018-12-29T05:02:18.267Z,925.62
2018-12-29T05:03:18.228Z,925.61
2018-12-29T05:04:18.182Z,925.61
2018-12-29T05:05:18.129Z,925.58
2018-12-29T05:06:18.110Z,925.58
2018-12-29T05:07:18.038Z,925.52
2018-12-29T05:08:17.993Z,925.54
2018-12-29T05:09:17.947Z,925.52
2018-12-29T05:10:17.913Z,925.54
2018-12-29T05:11:17.863Z,925.62
2018-12-29T05:12:17.819Z,925.60
2018-12-29T05:13:17.777Z,925.68
2018-12-29T05:14:17.718Z,925.63
2018-12-29T05:15:17.674Z,925.62
2018-12-29T05:16:17.636Z,925.61
2018-12-29T05:17:17.594Z,925.57
2018-12-29T05:18:17.555Z,925.61
2018-12-29T05:19:17.490Z,925.57
2018-12-29T05:20:17.465Z,925.60
2018-12-29T05:21:17.407Z,925.58
2018-12-29T05:22:17.361Z,925.63
2018-12-29T05:23:17.314Z,925.63
2018-12-29T05:24:17.269Z,925.61
2018-12-29T05:25:17.236Z,925.64
2018-12-29T05:26:17.169Z,925.64
2018-12-29T05:27:17.145Z,925.65
2018-12-29T05:28:17.100Z,925.63
2018-12-29T05:29:17.054Z,925.63
2018-12-29T05:30:16.994Z,925.66
2018-12-29T05:31:16.962Z,925.62
2018-12-29T05:32:16.915Z,925.67
2018-12-29T05:33:16.858Z,925.68
2018-12-29T05:34:16.813Z,925.68
2018-12-29T05:35:16.775Z,925.67
2018-12-29T05:36:16.732Z,925.67
2018-12-29T05:37:16.688Z,925.64
2018-12-29T05:38:16.642Z,925.63
2018-12-29T05:39:16.575Z,925.60
2018-12-29T05:40:16.546Z,925.59
2018-12-29T05:41:16.497Z,925.59
2018-12-29T05:42:16.451Z,925.63
2018-12-29T05:43:16.403Z,925.60
2018-12-29T05:44:16.367Z,925.64
2018-12-29T05:45:16.300Z,925.60
2018-12-29T05:46:20.276Z,925.64
2018-12-29T05:47:16.230Z,925.63
2018-12-29T05:48:16.163Z,925.67
2018-12-29T05:49:16.124Z,925.67
2018-12-29T05:50:16.093Z,925.66
2018-12-29T05:51:16.036Z,925.65
2018-12-29T05:52:16.001Z,925.63
2018-12-29T05:53:15.943Z,925.65
2018-12-29T05:54:15.898Z,925.64
2018-12-29T05:55:15.863Z,925.67
2018-12-29T05:56:15.797Z,925.70
2018-12-29T05:57:15.771Z,925.68
2018-12-29T05:58:15.705Z,925.70
2018-12-29T05:59:15.659Z,925.69
2018-12-29T06:00:15.635Z,925.67
2018-12-29T06:01:15.589Z,925.68
2018-12-29T06:02:15.534Z,925.64
2018-12-29T06:03:15.475Z,925.66
2018-12-29T06:04:15.433Z,925.66
2018-12-29T06:05:15.398Z,925.69
2018-12-29T06:06:15.347Z,925.70
2018-12-29T06:07:15.321Z,925.77
2018-12-29T06:08:15.247Z,925.77
2018-12-29T06:09:15.214Z,925.83
2018-12-29T06:10:15.168Z,925.84
2018-12-29T06:11:15.109Z,925.80
2018-12-29T06:12:15.075Z,925.82
2018-12-29T06:13:15.024Z,925.79
2018-12-29T06:14:14.971Z,925.75
2018-12-29T06:15:14.925Z,925.74
2018-12-29T06:16:14.887Z,925.78
2018-12-29T06:17:14.857Z,925.76
2018-12-29T06:18:14.808Z,925.80
2018-12-29T06:19:14.755Z,925.81
2018-12-29T06:20:14.700Z,925.77
2018-12-29T06:21:14.663Z,925.79
2018-12-29T06:22:14.604Z,925.83
2018-12-29T06:23:14.565Z,925.80
2018-12-29T06:24:14.525Z,925.84
2018-12-29T06:25:14.476Z,925.84
2018-12-29T06:26:14.435Z,925.84
2018-12-29T06:27:14.397Z,925.81
2018-12-29T06:28:14.337Z,925.87
2018-12-29T06:29:14.284Z,925.82
2018-12-29T06:30:14.238Z,925.83
2018-12-29T06:31:14.205Z,925.83
2018-12-29T06:32:14.153Z,925.81
2018-12-29T06:33:14.112Z,925.81
2018-12-29T06:34:14.083Z,925.86
2018-12-29T06:35:14.010Z,925.83
2018-12-29T06:36:13.974Z,925.84
2018-12-29T06:37:13.928Z,925.82
2018-12-29T06:38:13.877Z,925.85
2018-12-29T06:39:13.836Z,925.83
2018-12-29T06:40:13.785Z,925.80
2018-12-29T06:41:13.750Z,925.85
2018-12-29T06:42:13.694Z,925.79
2018-12-29T06:43:13.648Z,925.75
2018-12-29T06:44:13.615Z,925.80
2018-12-29T06:45:13.562Z,925.77
2018-12-29T06:46:13.515Z,925.81
2018-12-29T06:47:13.469Z,925.81
2018-12-29T06:48:13.418Z,925.81
2018-12-29T06:49:13.364Z,925.82
2018-12-29T06:50:13.331Z,925.86
2018-12-29T06:51:13.285Z,925.83
2018-12-29T06:52:13.240Z,925.81
2018-12-29T06:53:13.188Z,925.86
2018-12-29T06:54:13.135Z,925.81
2018-12-29T06:55:13.090Z,925.85
2018-12-29T06:56:13.067Z,925.83
2018-12-29T06:57:13.000Z,925.83
2018-12-29T06:58:12.972Z,925.85
2018-12-29T06:59:12.973Z,925.85
2018-12-29T07:00:12.871Z,925.88
2018-12-29T07:01:12.826Z,925.91
2018-12-29T07:02:12.788Z,925.88
2018-12-29T07:03:12.748Z,925.93
2018-12-29T07:04:12.688Z,925.86
2018-12-29T07:05:12.631Z,925.93
2018-12-29T07:06:12.604Z,925.89
2018-12-29T07:07:12.537Z,925.88
2018-12-29T07:08:12.515Z,925.94
2018-12-29T07:09:12.445Z,925.89
2018-12-29T07:10:12.407Z,925.93
2018-12-29T07:11:12.373Z,925.95
2018-12-29T07:12:12.314Z,925.92
2018-12-29T07:13:12.281Z,925.95
2018-12-29T07:14:12.228Z,925.95
2018-12-29T07:15:12.190Z,926.00
2018-12-29T07:16:12.130Z,925.96
2018-12-29T07:17:12.077Z,925.98
2018-12-29T07:18:12.045Z,925.99
2018-12-29T07:19:12.004Z,925.99
2018-12-29T07:20:11.938Z,926.01
2018-12-29T07:21:11.905Z,926.00
2018-12-29T07:22:11.872Z,926.03
2018-12-29T07:23:11.801Z,926.06
2018-12-29T07:24:11.754Z,926.04
2018-12-29T07:25:11.729Z,926.06
2018-12-29T07:26:11.676Z,926.00
2018-12-29T07:27:11.628Z,926.02
2018-12-29T07:28:11.590Z,926.00
2018-12-29T07:29:11.545Z,926.03
2018-12-29T07:30:11.478Z,926.05
2018-12-29T07:31:11.453Z,926.04
2018-12-29T07:32:11.423Z,926.02
2018-12-29T07:33:11.353Z,926.08
2018-12-29T07:34:11.297Z,926.06
2018-12-29T07:35:11.261Z,926.08
2018-12-29T07:36:11.208Z,926.09
2018-12-29T07:37:11.177Z,926.08
2018-12-29T07:38:11.121Z,926.15
2018-12-29T07:39:11.075Z,926.14
2018-12-29T07:40:11.024Z,926.17
2018-12-29T07:41:10.995Z,926.15
2018-12-29T07:42:10.945Z,926.12
2018-12-29T07:43:10.899Z,926.18
2018-12-29T07:44:10.847Z,926.15
2018-12-29T07:45:10.799Z,926.12
2018-12-29T07:46:10.754Z,926.16
2018-12-29T07:47:10.706Z,926.08
2018-12-29T07:48:10.656Z,926.09
2018-12-29T07:49:10.617Z,926.18
2018-12-29T07:50:10.575Z,926.16
2018-12-29T07:51:10.556Z,926.24
2018-12-29T07:52:10.462Z,926.23
2018-12-29T07:53:10.437Z,926.25
2018-12-29T07:54:10.391Z,926.26
2018-12-29T07:55:10.332Z,926.30
2018-12-29T07:56:10.290Z,926.30
2018-12-29T07:57:10.231Z,926.35
2018-12-29T07:58:10.198Z,926.35
2018-12-29T07:59:10.139Z,926.34
2018-12-29T08:00:10.101Z,926.32
2018-12-29T08:01:10.062Z,926.33
2018-12-29T08:02:10.021Z,926.36
2018-12-29T08:03:09.956Z,926.39
2018-12-29T08:04:09.908Z,926.46
2018-12-29T08:05:09.874Z,926.50
2018-12-29T08:06:09.824Z,926.53
2018-12-29T08:07:09.769Z,926.54
2018-12-29T08:08:09.730Z,926.52
2018-12-29T08:09:09.689Z,926.53
2018-12-29T08:10:09.645Z,926.55
2018-12-29T08:11:09.605Z,926.56
2018-12-29T08:12:09.545Z,926.52
2018-12-29T08:13:09.492Z,926.55
2018-12-29T08:14:09.456Z,926.54
2018-12-29T08:15:09.431Z,926.53
2018-12-29T08:16:09.353Z,926.59
2018-12-29T08:17:09.319Z,926.56
2018-12-29T08:18:09.261Z,926.55
2018-12-29T08:19:09.222Z,926.56
2018-12-29T08:20:09.176Z,926.59
2018-12-29T08:21:09.134Z,926.65
2018-12-29T08:22:09.083Z,926.66
2018-12-29T08:23:09.042Z,926.68
2018-12-29T08:24:08.983Z,926.73
2018-12-29T08:25:08.950Z,926.77
2018-12-29T08:26:08.909Z,926.71
2018-12-29T08:27:08.846Z,926.72
2018-12-29T08:28:08.806Z,926.73
2018-12-29T08:29:08.765Z,926.74
2018-12-29T08:30:08.713Z,926.71
2018-12-29T08:31:08.660Z,926.68
2018-12-29T08:32:08.626Z,926.71
2018-12-29T08:33:08.568Z,926.74
2018-12-29T08:34:08.538Z,926.81
2018-12-29T08:35:08.477Z,926.77
2018-12-29T08:36:08.449Z,926.79
2018-12-29T08:37:08.385Z,926.80
2018-12-29T08:38:08.399Z,926.81
2018-12-29T08:39:08.290Z,926.75
2018-12-29T08:40:08.252Z,926.80
2018-12-29T08:41:08.205Z,926.73
2018-12-29T08:42:08.173Z,926.79
2018-12-29T08:43:08.119Z,926.81
2018-12-29T08:44:08.060Z,926.79
2018-12-29T08:45:08.034Z,926.81
2018-12-29T08:46:07.975Z,926.86
2018-12-29T08:47:07.934Z,926.87
2018-12-29T08:48:07.888Z,926.90
2018-12-29T08:49:07.851Z,926.90
2018-12-29T08:50:12.920Z,927.00
2018-12-29T08:51:07.750Z,926.97
2018-12-29T08:52:07.691Z,926.96
2018-12-29T08:53:07.653Z,926.98
2018-12-29T08:54:07.602Z,927.00
2018-12-29T08:55:07.562Z,927.05
2018-12-29T08:56:07.521Z,927.05
2018-12-29T08:57:07.484Z,927.08
2018-12-29T08:58:07.425Z,927.09
2018-12-29T08:59:07.379Z,927.08
2018-12-29T09:00:07.347Z,927.06
2018-12-29T09:01:07.303Z,927.06
2018-12-29T09:02:07.248Z,927.11
2018-12-29T09:03:07.203Z,927.12
2018-12-29T09:04:07.166Z,927.10
2018-12-29T09:05:07.161Z,927.02
2018-12-29T09:06:07.067Z,927.09
2018-12-29T09:07:07.016Z,927.08
2018-12-29T09:08:06.969Z,927.12
2018-12-29T09:09:06.932Z,927.15
2018-12-29T09:10:06.882Z,927.15
2018-12-29T09:11:06.841Z,927.26
2018-12-29T09:12:06.796Z,927.34
2018-12-29T09:13:06.749Z,927.56
2018-12-29T09:14:06.700Z,927.65
2018-12-29T09:15:06.670Z,927.65
2018-12-29T09:16:06.618Z,927.49
2018-12-29T09:17:12.110Z,927.45
2018-12-29T09:18:06.526Z,927.36
2018-12-29T09:19:06.491Z,927.30
2018-12-29T09:20:06.433Z,927.37
2018-12-29T09:21:06.402Z,927.39
2018-12-29T09:22:06.349Z,927.54
2018-12-29T09:23:06.293Z,927.80
2018-12-29T09:24:06.256Z,927.79
2018-12-29T09:25:06.211Z,927.64
2018-12-29T09:26:06.169Z,927.59
2018-12-29T09:27:06.124Z,927.53
2018-12-29T09:28:06.076Z,927.74
2018-12-29T09:29:06.043Z,927.94
2018-12-29T09:30:05.994Z,927.94
2018-12-29T09:31:05.942Z,927.94
2018-12-29T09:32:05.912Z,928.00
2018-12-29T09:33:05.856Z,927.98
2018-12-29T09:34:05.835Z,927.98
2018-12-29T09:35:05.784Z,928.00
2018-12-29T09:36:05.754Z,927.90
2018-12-29T09:37:05.694Z,927.87
2018-12-29T09:38:05.658Z,927.72
2018-12-29T09:39:05.616Z,927.85
2018-12-29T09:40:05.570Z,927.86
2018-12-29T09:41:05.683Z,927.98
2018-12-29T09:42:05.479Z,927.98
2018-12-29T09:43:05.441Z,928.04
2018-12-29T09:44:05.406Z,928.04
2018-12-29T09:45:05.357Z,927.76
2018-12-29T09:46:05.352Z,927.94
2018-12-29T09:47:05.278Z,928.03
2018-12-29T09:48:05.262Z,927.90
2018-12-29T09:49:05.205Z,927.74
2018-12-29T09:50:05.178Z,927.80
2018-12-29T09:51:05.125Z,927.88
2018-12-29T09:52:05.081Z,927.93
2018-12-29T09:53:05.047Z,927.96
2018-12-29T09:54:04.999Z,928.02
2018-12-29T09:55:04.979Z,927.99
2018-12-29T09:56:04.929Z,928.07
2018-12-29T09:57:04.901Z,928.09
2018-12-29T09:58:04.849Z,928.08
2018-12-29T09:59:04.802Z,928.12
2018-12-29T10:00:04.771Z,928.09
2018-12-29T10:01:04.745Z,928.15
2018-12-29T10:02:04.700Z,928.16
2018-12-29T10:03:04.661Z,928.20
2018-12-29T10:04:04.613Z,928.15
2018-12-29T10:05:04.574Z,928.12
2018-12-29T10:06:04.549Z,928.20
2018-12-29T10:07:04.519Z,928.23
2018-12-29T10:08:04.483Z,928.25
2018-12-29T10:09:04.427Z,928.24
2018-12-29T10:10:04.405Z,928.26
2018-12-29T10:11:04.354Z,928.24
2018-12-29T10:12:04.327Z,928.25
2018-12-29T10:13:04.369Z,928.27
2018-12-29T10:14:04.247Z,928.29
2018-12-29T10:15:04.212Z,928.34
2018-12-29T10:16:04.190Z,928.24
2018-12-29T10:17:04.142Z,928.26
2018-12-29T10:18:04.124Z,928.28
2018-12-29T10:19:04.083Z,928.29
2018-12-29T10:20:04.061Z,928.24
2018-12-29T10:21:04.013Z,928.25
2018-12-29T10:22:03.979Z,928.23
2018-12-29T10:23:03.956Z,928.30
2018-12-29T10:24:03.916Z,928.24
2018-12-29T10:25:03.892Z,927.88
2018-12-29T10:26:03.849Z,928.22
2018-12-29T10:27:03.804Z,928.33
2018-12-29T10:28:03.791Z,927.98
2018-12-29T10:29:03.749Z,928.34
2018-12-29T10:30:03.701Z,928.28
2018-12-29T10:31:03.675Z,928.15
2018-12-29T10:32:03.717Z,927.98
2018-12-29T10:33:03.608Z,927.87
2018-12-29T10:34:03.578Z,927.86
2018-12-29T10:35:03.538Z,927.83
2018-12-29T10:36:03.503Z,927.86
2018-12-29T10:37:03.460Z,927.83
2018-12-29T10:38:03.437Z,927.77
2018-12-29T10:39:03.411Z,927.75
2018-12-29T10:40:03.362Z,927.76
2018-12-29T10:41:03.324Z,927.77
2018-12-29T10:42:03.301Z,927.76
2018-12-29T10:43:03.256Z,927.72
2018-12-29T10:44:03.206Z,927.73
2018-12-29T10:45:03.170Z,927.71
2018-12-29T10:46:03.133Z,927.75
2018-12-29T10:47:03.094Z,927.71
2018-12-29T10:48:03.063Z,927.69
2018-12-29T10:49:03.018Z,927.71
2018-12-29T10:50:02.980Z,927.69
2018-12-29T10:51:02.948Z,927.71
2018-12-29T10:52:02.921Z,927.69
2018-12-29T10:53:02.871Z,927.79
2018-12-29T10:54:02.826Z,927.74
2018-12-29T10:55:02.792Z,927.78
2018-12-29T10:56:02.753Z,927.74
2018-12-29T10:57:02.719Z,927.79
2018-12-29T10:58:02.688Z,927.74
2018-12-29T10:59:02.635Z,927.70
2018-12-29T11:00:02.608Z,927.66
2018-12-29T11:01:02.559Z,927.69
2018-12-29T11:02:02.519Z,927.70
2018-12-29T11:03:02.466Z,927.70
2018-12-29T11:04:02.434Z,927.68
2018-12-29T11:05:02.406Z,927.67
2018-12-29T11:06:02.362Z,927.66
2018-12-29T11:07:02.306Z,927.61
2018-12-29T11:08:02.272Z,927.67
2018-12-29T11:09:02.231Z,927.64
2018-12-29T11:10:02.182Z,927.58
2018-12-29T11:11:02.144Z,927.61
2018-12-29T11:12:02.110Z,927.59
2018-12-29T11:13:02.061Z,927.59
2018-12-29T11:14:02.027Z,927.56
2018-12-29T11:15:01.991Z,927.56
2018-12-29T11:16:01.949Z,927.51
2018-12-29T11:17:01.916Z,927.52
2018-12-29T11:18:01.854Z,927.51
2018-12-29T11:19:01.826Z,927.55
2018-12-29T11:20:01.775Z,927.57
2018-12-29T11:21:02.559Z,927.57
2018-12-29T11:22:01.689Z,927.58
2018-12-29T11:23:01.649Z,927.57
2018-12-29T11:24:01.619Z,927.61
2018-12-29T11:25:01.586Z,927.59
2018-12-29T11:26:01.531Z,927.57
2018-12-29T11:27:01.492Z,927.58
2018-12-29T11:28:01.441Z,927.60
2018-12-29T11:29:01.408Z,927.63
2018-12-29T11:30:01.391Z,927.62
2018-12-29T11:31:01.325Z,927.64
2018-12-29T11:32:01.283Z,927.64
2018-12-29T11:33:01.247Z,927.66
2018-12-29T11:34:01.201Z,927.69
2018-12-29T11:35:01.160Z,927.66
2018-12-29T11:36:01.123Z,927.64
2018-12-29T11:37:01.082Z,927.66
2018-12-29T11:38:01.048Z,927.64
2018-12-29T11:39:01.006Z,927.62
2018-12-29T11:40:00.999Z,927.65
2018-12-29T11:41:00.915Z,927.61
2018-12-29T11:42:00.862Z,927.63
2018-12-29T11:43:00.827Z,927.60
2018-12-29T11:44:00.799Z,927.57
2018-12-29T11:45:00.757Z,927.62
2018-12-29T11:46:00.703Z,927.61
2018-12-29T11:47:00.662Z,927.57
2018-12-29T11:48:00.634Z,927.60
2018-12-29T11:49:02.004Z,927.59
2018-12-29T11:50:00.535Z,927.53
2018-12-29T11:51:00.487Z,927.54
2018-12-29T11:52:00.445Z,927.49
2018-12-29T11:53:00.423Z,927.52
2018-12-29T11:54:00.383Z,927.50
2018-12-29T11:55:00.340Z,927.55
2018-12-29T11:56:00.291Z,927.51
2018-12-29T11:57:00.244Z,927.54
2018-12-29T11:58:00.217Z,927.50
2018-12-29T11:59:00.154Z,927.53
2018-12-29T12:00:00.162Z,927.55
2018-12-29T12:01:00.092Z,927.53
2018-12-29T12:02:00.038Z,927.50
2018-12-29T12:02:59.990Z,927.49
2018-12-29T12:03:59.955Z,927.50
2018-12-29T12:04:59.913Z,927.51
2018-12-29T12:05:59.885Z,927.50
2018-12-29T12:06:59.836Z,927.51
2018-12-29T12:07:59.803Z,927.52
2018-12-29T12:08:59.740Z,927.49
2018-12-29T12:09:59.699Z,927.48
2018-12-29T12:10:59.682Z,927.48
2018-12-29T12:11:59.618Z,927.47
2018-12-29T12:12:59.582Z,927.47
2018-12-29T12:13:59.555Z,927.49
2018-12-29T12:14:59.499Z,927.49
2018-12-29T12:15:59.466Z,927.47
2018-12-29T12:16:59.411Z,927.47
2018-12-29T12:17:59.368Z,927.41
2018-12-29T12:18:59.340Z,927.35
2018-12-29T12:19:59.285Z,927.43
2018-12-29T12:20:59.251Z,927.39
2018-12-29T12:21:59.203Z,927.36
2018-12-29T12:22:59.163Z,927.44
2018-12-29T12:23:59.120Z,927.43
2018-12-29T12:24:59.078Z,927.44
2018-12-29T12:25:59.051Z,927.37
2018-12-29T12:26:59.003Z,927.39
2018-12-29T12:27:58.967Z,927.35